createdAt,value
2018-04-28T00:01:10.504Z,99.90
2018-04-28T00:03:36.631Z,99.90
2018-04-28T00:06:02.749Z,99.90
2018-04-28T00:08:40.516Z,99.90
2018-04-28T00:11:06.616Z,99.90
2018-04-28T00:13:32.813Z,99.90
2018-04-28T00:15:59.859Z,99.90
2018-04-28T00:18:25.970Z,99.90
2018-04-28T00:20:52.073Z,99.90
2018-04-28T00:23:18.993Z,99.90
2018-04-28T00:25:45.105Z,99.90
2018-04-28T00:28:14.113Z,99.90
2018-04-28T00:30:40.984Z,99.90
2018-04-28T00:33:22.881Z,99.90
2018-04-28T00:35:58.093Z,99.90
2018-04-28T00:38:24.207Z,99.90
2018-04-28T00:40:50.341Z,99.90
2018-04-28T00:43:16.469Z,99.90
2018-04-28T00:45:48.589Z,99.90
2018-04-28T00:51:24.338Z,99.90
2018-04-28T00:53:52.450Z,99.90
2018-04-28T00:56:18.682Z,99.90
2018-04-28T00:58:44.790Z,99.90
2018-04-28T01:01:10.949Z,99.90
2018-04-28T01:03:37.069Z,99.90
2018-04-28T01:06:03.181Z,99.90
2018-04-28T01:08:30.129Z,99.90
2018-04-28T01:11:01.068Z,99.90
2018-04-28T01:13:32.113Z,99.90
2018-04-28T01:15:58.341Z,99.90
2018-04-28T01:18:24.470Z,99.90
2018-04-28T01:21:08.569Z,99.90
2018-04-28T01:23:37.610Z,99.90
2018-04-28T01:26:11.743Z,99.90
2018-04-28T01:28:40.790Z,99.90
2018-04-28T01:31:07.729Z,99.90
2018-04-28T01:33:52.677Z,99.90
2018-04-28T01:39:29.199Z,99.90
2018-04-28T01:42:07.710Z,99.90
2018-04-28T01:44:40.369Z,99.90
2018-04-28T01:47:18.882Z,99.90
2018-04-28T01:49:51.836Z,99.90
2018-04-28T01:52:18.684Z,99.90
2018-04-28T01:55:00.724Z,99.90
2018-04-28T01:57:29.912Z,99.90
2018-04-28T02:00:02.940Z,99.90
2018-04-28T02:05:51.386Z,99.90
2018-04-28T02:08:17.527Z,99.90
2018-04-28T02:11:01.536Z,99.90
2018-04-28T02:13:34.726Z,99.90
2018-04-28T02:16:00.873Z,99.90
2018-04-28T02:18:36.978Z,99.90
2018-04-28T02:21:15.155Z,99.90
2018-04-28T02:23:43.913Z,99.90
2018-04-28T02:26:13.749Z,99.90
2018-04-28T02:28:58.473Z,99.90
2018-04-28T02:34:33.812Z,99.90
2018-04-28T02:37:08.101Z,99.90
2018-04-28T02:39:34.220Z,99.90
2018-04-28T02:42:03.092Z,99.90
2018-04-28T02:44:32.177Z,99.90
2018-04-28T02:47:04.263Z,99.90
2018-04-28T02:49:33.381Z,99.90
2018-04-28T02:55:10.190Z,99.90
2018-04-28T02:57:51.007Z,99.90
2018-04-28T03:00:18.867Z,99.90
2018-04-28T03:02:45.939Z,99.90
2018-04-28T03:05:12.885Z,99.90
2018-04-28T03:07:41.857Z,99.90
2018-04-28T03:10:07.933Z,99.90
2018-04-28T03:12:34.026Z,99.90
2018-04-28T03:15:00.156Z,99.90
2018-04-28T03:17:30.145Z,99.90
2018-04-28T03:19:57.206Z,99.90
2018-04-28T03:22:24.221Z,99.90
2018-04-28T03:24:53.262Z,99.90
2018-04-28T03:27:28.450Z,99.90
2018-04-28T03:30:06.909Z,99.90
2018-04-28T03:32:39.793Z,99.90
2018-04-28T03:35:05.856Z,99.90
2018-04-28T03:37:34.918Z,99.90
2018-04-28T03:40:07.801Z,99.90
2018-04-28T03:42:35.867Z,99.90
2018-04-28T03:45:01.958Z,99.90
2018-04-28T03:47:39.863Z,99.90
2018-04-28T03:50:14.609Z,99.90
2018-04-28T03:55:47.089Z,99.90
2018-04-28T03:58:25.490Z,99.90
2018-04-28T04:01:03.885Z,99.90
2018-04-28T04:03:29.986Z,99.90
2018-04-28T04:06:06.181Z,99.90
2018-04-28T04:08:54.270Z,99.90
2018-04-28T04:14:47.737Z,99.90
2018-04-28T04:17:25.025Z,99.90
2018-04-28T04:20:13.182Z,99.90
2018-04-28T04:22:48.413Z,99.90
2018-04-28T04:25:22.693Z,99.90
2018-04-28T04:28:08.313Z,99.90
2018-04-28T04:30:37.347Z,99.90
2018-04-28T04:33:09.669Z,99.90
2018-04-28T04:35:41.629Z,99.90
2018-04-28T04:38:07.718Z,99.90
2018-04-28T04:40:41.616Z,99.90
2018-04-28T04:43:13.682Z,99.90
2018-04-28T04:45:52.018Z,99.90
2018-04-28T04:48:18.207Z,99.90
2018-04-28T04:54:06.432Z,99.90
2018-04-28T04:56:39.466Z,99.90
2018-04-28T05:02:29.521Z,99.90
2018-04-28T05:05:04.686Z,99.90
2018-04-28T05:07:31.851Z,99.90
2018-04-28T05:13:27.545Z,99.90
2018-04-28T05:19:16.945Z,99.90
2018-04-28T05:21:43.910Z,99.90
2018-04-28T05:24:21.146Z,99.90
2018-04-28T05:26:49.204Z,99.90
2018-04-28T05:29:36.013Z,99.90
2018-04-28T05:35:21.538Z,99.90
2018-04-28T05:37:50.441Z,99.90
2018-04-28T05:40:19.396Z,99.90
2018-04-28T05:42:57.729Z,99.90
2018-04-28T05:45:29.869Z,99.90
2018-04-28T05:48:07.073Z,99.90
2018-04-28T05:54:11.609Z,99.90
2018-04-28T05:56:49.813Z,99.90
2018-04-28T05:59:39.919Z,99.90
2018-04-28T06:02:13.713Z,99.90
2018-04-28T06:04:45.655Z,99.90
2018-04-28T06:07:24.107Z,99.90
2018-04-28T06:13:21.890Z,99.90
2018-04-28T06:15:54.905Z,99.90
2018-04-28T06:18:33.478Z,99.90
2018-04-28T06:20:59.623Z,99.90
2018-04-28T06:23:25.708Z,99.90
2018-04-28T06:25:51.817Z,99.90
2018-04-28T06:28:18.673Z,99.90
2018-04-28T06:30:44.752Z,99.90
2018-04-28T06:33:10.863Z,99.90
2018-04-28T06:35:36.949Z,99.90
2018-04-28T06:38:03.060Z,99.90
2018-04-28T06:40:29.941Z,99.90
2018-04-28T06:42:56.088Z,99.90
2018-04-28T06:45:22.175Z,99.90
2018-04-28T06:47:48.253Z,99.90
2018-04-28T06:50:14.365Z,99.90
2018-04-28T06:52:40.509Z,99.90
2018-04-28T06:55:06.633Z,99.90
2018-04-28T06:57:32.729Z,99.90
2018-04-28T06:59:58.827Z,99.90
2018-04-28T07:02:24.934Z,99.90
2018-04-28T07:04:51.038Z,99.90
2018-04-28T07:07:17.136Z,99.90
2018-04-28T07:09:43.225Z,99.90
2018-04-28T07:12:10.083Z,99.90
2018-04-28T07:14:36.904Z,99.90
2018-04-28T07:17:03.011Z,99.90
2018-04-28T07:19:29.089Z,99.90
2018-04-28T07:21:55.197Z,99.90
2018-04-28T07:24:21.279Z,99.90
2018-04-28T07:26:47.465Z,99.90
2018-04-28T07:29:13.627Z,99.90
2018-04-28T07:31:39.665Z,99.90
2018-04-28T07:34:05.740Z,99.90
2018-04-28T07:36:32.570Z,99.90
2018-04-28T07:38:58.668Z,99.90
2018-04-28T07:41:24.766Z,99.90
2018-04-28T07:43:50.861Z,99.90
2018-04-28T07:46:16.985Z,99.90
2018-04-28T07:48:43.123Z,99.90
2018-04-28T07:51:09.954Z,99.90
2018-04-28T07:53:36.785Z,99.90
2018-04-28T07:56:02.905Z,99.90
2018-04-28T07:58:28.997Z,99.90
2018-04-28T08:00:55.130Z,99.90
2018-04-28T08:03:21.953Z,99.90
2018-04-28T08:05:48.092Z,99.90
2018-04-28T08:08:14.186Z,99.90
2018-04-28T08:10:40.302Z,99.90
2018-04-28T08:13:07.157Z,99.90
2018-04-28T08:15:33.984Z,99.90
2018-04-28T08:18:00.853Z,99.90
2018-04-28T08:20:27.705Z,99.90
2018-04-28T08:22:53.818Z,99.90
2018-04-28T08:25:20.417Z,99.90
2018-04-28T08:27:46.523Z,99.90
2018-04-28T08:30:13.390Z,99.90
2018-04-28T08:32:39.565Z,99.90
2018-04-28T08:35:05.691Z,99.90
2018-04-28T08:37:31.804Z,99.90
2018-04-28T08:39:58.778Z,99.90
2018-04-28T08:42:24.861Z,99.90
2018-04-28T08:44:50.985Z,99.90
2018-04-28T08:47:17.093Z,99.90
2018-04-28T08:49:43.946Z,99.90
2018-04-28T08:52:10.834Z,99.90
2018-04-28T08:54:36.977Z,99.90
2018-04-28T08:57:03.062Z,99.90
2018-04-28T08:59:41.351Z,99.90
2018-04-28T09:02:07.482Z,99.90
2018-04-28T09:04:33.554Z,99.90
2018-04-28T09:06:59.674Z,99.90
2018-04-28T09:09:25.794Z,99.90
2018-04-28T09:11:51.849Z,99.90
2018-04-28T09:14:17.911Z,99.90
2018-04-28T09:16:43.998Z,99.90
2018-04-28T09:19:10.077Z,99.90
2018-04-28T09:21:36.145Z,99.90
2018-04-28T09:24:02.997Z,99.90
2018-04-28T09:26:29.821Z,99.90
2018-04-28T09:28:55.884Z,99.90
2018-04-28T09:31:22.698Z,99.90
2018-04-28T09:33:49.042Z,99.90
2018-04-28T09:36:15.158Z,99.90
2018-04-28T09:38:41.233Z,99.90
2018-04-28T09:41:07.329Z,99.90
2018-04-28T09:43:33.427Z,99.90
2018-04-28T09:45:59.525Z,99.90
2018-04-28T09:48:25.592Z,99.90
2018-04-28T09:50:51.645Z,99.90
2018-04-28T09:53:17.741Z,99.90
2018-04-28T09:55:43.804Z,99.90
2018-04-28T09:58:09.875Z,99.90
2018-04-28T10:03:44.616Z,99.90
2018-04-28T10:06:11.721Z,99.90
2018-04-28T10:08:37.822Z,99.90
2018-04-28T10:11:03.900Z,99.90
2018-04-28T10:13:30.004Z,99.90
2018-04-28T10:15:56.865Z,99.90
2018-04-28T10:18:23.701Z,99.90
2018-04-28T10:20:49.841Z,99.90
2018-04-28T10:23:15.979Z,99.90
2018-04-28T10:25:42.065Z,99.90
2018-04-28T10:28:08.180Z,99.90
2018-04-28T10:30:35.046Z,99.90
2018-04-28T10:33:01.214Z,99.90
2018-04-28T10:35:27.292Z,99.90
2018-04-28T10:37:53.413Z,99.90
2018-04-28T10:40:19.510Z,99.90
2018-04-28T10:42:45.685Z,99.90
2018-04-28T10:45:11.757Z,99.90
2018-04-28T10:47:38.755Z,99.90
2018-04-28T10:50:04.769Z,99.90
2018-04-28T10:52:30.925Z,99.90
2018-04-28T10:54:57.012Z,99.90
2018-04-28T10:57:23.104Z,99.90
2018-04-28T10:59:49.219Z,99.90
2018-04-28T11:02:15.313Z,99.90
2018-04-28T11:04:41.383Z,99.90
2018-04-28T11:07:08.225Z,99.90
2018-04-28T11:09:34.298Z,99.90
2018-04-28T11:12:00.382Z,99.90
2018-04-28T11:14:26.450Z,99.90
2018-04-28T11:16:52.543Z,99.90
2018-04-28T11:19:18.644Z,99.90
2018-04-28T11:21:44.736Z,99.90
2018-04-28T11:24:10.853Z,99.90
2018-04-28T11:26:37.013Z,99.90
2018-04-28T11:29:03.120Z,99.90
2018-04-28T11:31:29.196Z,99.90
2018-04-28T11:33:55.345Z,99.90
2018-04-28T11:36:22.170Z,99.90
2018-04-28T11:38:48.266Z,99.90
2018-04-28T11:41:14.372Z,99.90
2018-04-28T11:43:40.552Z,99.90
2018-04-28T11:46:06.619Z,99.90
2018-04-28T11:48:32.728Z,99.90
2018-04-28T11:50:58.821Z,99.90
2018-04-28T11:53:24.918Z,99.90
2018-04-28T11:55:51.022Z,99.90
2018-04-28T11:58:17.844Z,99.90
2018-04-28T12:00:43.941Z,99.90
2018-04-28T12:03:10.020Z,99.90
2018-04-28T12:05:36.131Z,99.90
2018-04-28T12:08:02.233Z,99.90
2018-04-28T12:10:28.341Z,99.90
2018-04-28T12:12:54.459Z,99.90
2018-04-28T12:15:20.581Z,99.90
2018-04-28T12:17:46.661Z,99.90
2018-04-28T12:20:12.766Z,99.90
2018-04-28T12:22:38.882Z,99.90
2018-04-28T12:25:04.978Z,99.90
2018-04-28T12:27:31.108Z,99.90
2018-04-28T12:29:57.247Z,99.90
2018-04-28T12:32:23.354Z,99.90
2018-04-28T12:34:49.462Z,99.90
2018-04-28T12:37:15.549Z,99.90
2018-04-28T12:39:41.652Z,99.90
2018-04-28T12:42:07.737Z,99.90
2018-04-28T12:44:33.844Z,99.90
2018-04-28T12:46:59.969Z,99.90
2018-04-28T12:49:26.092Z,99.90
2018-04-28T12:51:52.283Z,99.90
2018-04-28T12:54:18.361Z,99.90
2018-04-28T12:56:45.219Z,99.90
2018-04-28T12:59:11.306Z,99.90
2018-04-28T13:01:37.398Z,99.90
2018-04-28T13:04:03.522Z,99.90
2018-04-28T13:06:30.445Z,99.90
2018-04-28T13:08:56.529Z,99.90
2018-04-28T13:11:22.616Z,99.90
2018-04-28T13:13:48.717Z,99.90
2018-04-28T13:16:25.924Z,99.90
2018-04-28T13:18:52.051Z,99.90
2018-04-28T13:21:18.186Z,99.90
2018-04-28T13:23:45.398Z,99.90
2018-04-28T13:26:11.497Z,99.90
2018-04-28T13:28:37.657Z,99.90
2018-04-28T13:31:04.005Z,99.90
2018-04-28T13:33:31.106Z,99.90
2018-04-28T13:35:57.384Z,99.90
2018-04-28T13:38:24.560Z,99.90
2018-04-28T13:40:50.686Z,99.90
2018-04-28T13:43:16.781Z,99.90
2018-04-28T13:45:43.008Z,99.90
2018-04-28T13:48:09.123Z,99.90
2018-04-28T13:50:35.996Z,99.90
2018-04-28T13:53:02.097Z,99.90
2018-04-28T13:55:28.274Z,99.90
2018-04-28T13:57:54.367Z,99.90
2018-04-28T14:00:20.454Z,97.10
2018-04-28T14:02:46.589Z,93.90
2018-04-28T14:05:12.708Z,91.40
2018-04-28T14:07:38.830Z,78.50
2018-04-28T14:10:04.945Z,70.20
2018-04-28T14:12:31.161Z,68.80
2018-04-28T14:14:57.270Z,66.30
2018-04-28T14:17:23.380Z,59.60
2018-04-28T14:19:49.529Z,60.70
2018-04-28T14:22:15.660Z,60.40
2018-04-28T14:24:41.765Z,59.80
2018-04-28T14:27:07.857Z,58.30
2018-04-28T14:29:33.986Z,58.10
2018-04-28T14:32:00.101Z,63.00
2018-04-28T14:34:26.209Z,58.10
2018-04-28T14:36:52.319Z,58.40
2018-04-28T14:39:18.414Z,61.80
2018-04-28T14:41:45.266Z,58.70
2018-04-28T14:44:11.341Z,58.60
2018-04-28T14:46:37.444Z,58.90
2018-04-28T14:49:04.289Z,55.80
2018-04-28T14:51:30.381Z,55.80
2018-04-28T14:53:56.489Z,54.60
2018-04-28T14:56:22.566Z,57.10
2018-04-28T14:58:48.694Z,57.80
2018-04-28T15:01:14.851Z,57.80
2018-04-28T15:03:40.953Z,56.60
2018-04-28T15:06:07.054Z,58.10
2018-04-28T15:08:33.978Z,59.30
2018-04-28T15:11:00.054Z,60.20
2018-04-28T15:13:28.005Z,58.00
2018-04-28T15:15:54.082Z,57.90
2018-04-28T15:18:20.192Z,62.50
2018-04-28T15:20:46.301Z,59.20
2018-04-28T15:23:12.422Z,61.50
2018-04-28T15:25:38.488Z,59.80
2018-04-28T15:28:05.624Z,62.00
2018-04-28T15:30:31.789Z,60.20
2018-04-28T15:32:57.898Z,62.10
2018-04-28T15:35:23.973Z,62.00
2018-04-28T15:37:50.121Z,62.20
2018-04-28T15:40:16.353Z,60.60
2018-04-28T15:42:42.464Z,63.40
2018-04-28T15:45:08.569Z,61.80
2018-04-28T15:47:35.475Z,63.50
2018-04-28T15:50:01.726Z,63.50
2018-04-28T15:52:27.667Z,59.70
2018-04-28T15:54:53.957Z,61.40
2018-04-28T15:57:20.032Z,61.20
2018-04-28T15:59:46.106Z,66.30
2018-04-28T16:02:12.940Z,66.90
2018-04-28T16:04:39.041Z,66.70
2018-04-28T16:07:05.467Z,64.90
2018-04-28T16:09:31.611Z,61.40
2018-04-28T16:11:57.805Z,64.30
2018-04-28T16:14:23.919Z,62.20
2018-04-28T16:16:49.984Z,61.00
2018-04-28T16:19:16.189Z,62.70
2018-04-28T16:21:42.275Z,62.90
2018-04-28T16:24:08.321Z,69.40
2018-04-28T16:26:35.221Z,65.40
2018-04-28T16:29:01.293Z,65.10
2018-04-28T16:31:27.385Z,65.30
2018-04-28T16:33:53.509Z,65.00
2018-04-28T16:36:19.613Z,65.40
2018-04-28T16:38:45.782Z,62.90
2018-04-28T16:41:11.880Z,66.50
2018-04-28T16:43:37.941Z,64.70
2018-04-28T16:46:04.094Z,61.30
2018-04-28T16:48:30.947Z,66.40
2018-04-28T16:50:57.815Z,62.40
2018-04-28T16:53:23.908Z,62.30
2018-04-28T16:55:50.092Z,60.80
2018-04-28T16:58:16.196Z,63.10
2018-04-28T17:00:42.380Z,62.40
2018-04-28T17:03:08.496Z,63.60
2018-04-28T17:05:35.312Z,61.20
2018-04-28T17:08:01.422Z,61.20
2018-04-28T17:10:27.532Z,63.00
2018-04-28T17:12:53.641Z,60.20
2018-04-28T17:15:19.808Z,61.80
2018-04-28T17:17:53.454Z,65.20
2018-04-28T17:20:19.540Z,65.20
2018-04-28T17:22:45.757Z,67.70
2018-04-28T17:25:11.857Z,68.20
2018-04-28T17:27:37.957Z,68.40
2018-04-28T17:30:04.055Z,68.70
2018-04-28T17:32:30.156Z,69.80
2018-04-28T17:34:56.301Z,69.30
2018-04-28T17:37:22.396Z,72.10
2018-04-28T17:39:48.477Z,72.60
2018-04-28T17:42:14.574Z,75.50
2018-04-28T17:44:40.649Z,78.90
2018-04-28T17:47:06.769Z,78.30
2018-04-28T17:49:33.829Z,84.80
2018-04-28T17:52:00.631Z,90.20
2018-04-28T17:54:26.724Z,90.20
2018-04-28T17:56:53.521Z,98.10
2018-04-28T17:59:19.617Z,98.10
2018-04-28T18:01:46.433Z,99.90
2018-04-28T18:04:12.558Z,99.90
2018-04-28T18:06:38.686Z,99.90
2018-04-28T18:09:04.777Z,99.90
2018-04-28T18:11:31.005Z,99.90
2018-04-28T18:13:57.205Z,99.90
2018-04-28T18:16:23.334Z,99.90
2018-04-28T18:18:49.445Z,99.90
2018-04-28T18:21:16.281Z,99.90
2018-04-28T18:23:42.473Z,99.90
2018-04-28T18:26:08.556Z,99.90
2018-04-28T18:28:34.708Z,99.90
2018-04-28T18:31:00.787Z,99.90
2018-04-28T18:33:26.897Z,99.90
2018-04-28T18:35:53.808Z,99.90
2018-04-28T18:38:19.890Z,99.90
2018-04-28T18:40:46.774Z,99.90
2018-04-28T18:43:12.872Z,99.90
2018-04-28T18:45:39.694Z,99.90
2018-04-28T18:48:05.809Z,99.90
2018-04-28T18:50:31.878Z,99.90
2018-04-28T18:52:57.990Z,99.90
2018-04-28T18:55:24.081Z,99.90
2018-04-28T18:57:50.964Z,99.90
2018-04-28T19:00:17.099Z,99.90
2018-04-28T19:02:43.254Z,99.90
2018-04-28T19:05:09.332Z,99.90
2018-04-28T19:07:35.417Z,99.90
2018-04-28T19:10:01.582Z,99.90
2018-04-28T19:12:27.690Z,99.90
2018-04-28T19:14:53.809Z,99.90
2018-04-28T19:17:20.624Z,99.90
2018-04-28T19:19:46.736Z,99.90
2018-04-28T19:22:12.822Z,99.90
2018-04-28T19:24:39.088Z,99.90
2018-04-28T19:27:05.261Z,99.90
2018-04-28T19:29:34.796Z,99.90
2018-04-28T19:32:01.771Z,99.90
2018-04-28T19:34:28.597Z,99.90
2018-04-28T19:36:54.730Z,99.90
2018-04-28T19:39:20.846Z,99.90
2018-04-28T19:41:49.482Z,99.90
2018-04-28T19:44:15.665Z,99.90
2018-04-28T19:46:42.525Z,99.90
2018-04-28T19:49:08.689Z,99.90
2018-04-28T19:51:34.866Z,99.90
2018-04-28T19:54:00.945Z,99.90
2018-04-28T19:56:27.794Z,99.90
2018-04-28T19:58:54.612Z,99.90
2018-04-28T20:01:20.706Z,99.90
2018-04-28T20:03:46.797Z,99.90
2018-04-28T20:06:12.860Z,99.90
2018-04-28T20:08:39.685Z,99.90
2018-04-28T20:11:05.745Z,99.90
2018-04-28T20:13:32.649Z,99.90
2018-04-28T20:15:58.809Z,99.90
2018-04-28T20:18:24.876Z,99.90
2018-04-28T20:20:51.717Z,99.90
2018-04-28T20:23:30.117Z,99.90
2018-04-28T20:25:56.248Z,99.90
2018-04-28T20:28:22.368Z,99.90
2018-04-28T20:30:48.502Z,99.90
2018-04-28T20:33:14.577Z,99.90
2018-04-28T20:35:40.665Z,99.90
2018-04-28T20:38:06.810Z,99.90
2018-04-28T20:40:32.958Z,99.90
2018-04-28T20:42:59.033Z,99.90
2018-04-28T20:45:25.213Z,99.90
2018-04-28T20:47:52.103Z,99.90
2018-04-28T20:50:18.212Z,99.90
2018-04-28T20:52:45.005Z,99.90
2018-04-28T20:55:11.119Z,99.90
2018-04-28T20:57:37.213Z,99.90
2018-04-28T21:00:03.390Z,99.90
2018-04-28T21:02:29.449Z,99.90
2018-04-28T21:04:55.578Z,99.90
2018-04-28T21:07:21.689Z,99.90
2018-04-28T21:09:48.504Z,99.90
2018-04-28T21:12:14.634Z,99.90
2018-04-28T21:14:40.777Z,99.90
2018-04-28T21:17:06.852Z,99.90
2018-04-28T21:19:32.973Z,99.90
2018-04-28T21:21:59.148Z,99.90
2018-04-28T21:24:26.023Z,99.90
2018-04-28T21:26:52.179Z,99.90
2018-04-28T21:29:18.321Z,99.90
2018-04-28T21:31:45.157Z,99.90
2018-04-28T21:34:11.285Z,99.90
2018-04-28T21:36:37.409Z,99.90
2018-04-28T21:39:04.422Z,99.90
2018-04-28T21:41:30.518Z,99.90
2018-04-28T21:43:56.665Z,99.90
2018-04-28T21:46:22.760Z,99.90
2018-04-28T21:48:48.822Z,99.90
2018-04-28T21:51:15.745Z,99.90
2018-04-28T21:53:41.914Z,99.90
2018-04-28T21:56:08.719Z,99.90
2018-04-28T21:58:34.789Z,99.90
2018-04-28T22:01:00.905Z,99.90
2018-04-28T22:03:26.982Z,99.90
2018-04-28T22:05:53.832Z,99.90
2018-04-28T22:08:20.670Z,99.90
2018-04-28T22:10:46.736Z,99.90
2018-04-28T22:13:13.565Z,99.90
2018-04-28T22:15:39.734Z,99.90
2018-04-28T22:18:05.830Z,99.90
2018-04-28T22:20:31.909Z,99.90
2018-04-28T22:22:58.037Z,99.90
2018-04-28T22:25:24.878Z,99.90
2018-04-28T22:27:50.994Z,99.90
2018-04-28T22:30:17.079Z,99.90
2018-04-28T22:32:43.193Z,99.90
2018-04-28T22:35:10.014Z,99.90
2018-04-28T22:37:36.077Z,99.90
2018-04-28T22:40:02.173Z,99.90
2018-04-28T22:42:28.253Z,99.90
2018-04-28T22:44:54.333Z,99.90
2018-04-28T22:47:20.477Z,99.90
2018-04-28T22:49:46.570Z,99.90
2018-04-28T22:52:12.677Z,99.90
2018-04-28T22:54:38.728Z,99.90
2018-04-28T22:57:04.821Z,99.90
2018-04-28T22:59:30.876Z,99.90
2018-04-28T23:01:57.010Z,99.90
2018-04-28T23:04:23.109Z,99.90
2018-04-28T23:06:49.232Z,99.90
2018-04-28T23:09:15.289Z,99.90
2018-04-28T23:11:42.128Z,99.90
2018-04-28T23:14:08.188Z,99.90
2018-04-28T23:16:35.018Z,99.90
2018-04-28T23:19:01.086Z,99.90
2018-04-28T23:21:27.173Z,99.90
2018-04-28T23:23:53.236Z,99.90
2018-04-28T23:26:19.354Z,99.90
2018-04-28T23:28:45.424Z,99.90
2018-04-28T23:31:12.249Z,99.90
2018-04-28T23:33:38.327Z,99.90
2018-04-28T23:36:05.212Z,99.90
2018-04-28T23:38:31.280Z,99.90
2018-04-28T23:40:57.363Z,99.90
2018-04-28T23:43:23.453Z,99.90
2018-04-28T23:45:49.551Z,99.90
2018-04-28T23:48:15.653Z,99.90
2018-04-28T23:50:41.757Z,99.90
2018-04-28T23:53:07.844Z,99.90
2018-04-28T23:55:34.661Z,99.90
2018-04-28T23:58:00.749Z,99.90
